sensor_id;sensor_type;location;lat;lon;timestamp;temperature;humidity
9410;DHT22;4744;52.576;13.568;2023-01-31T00:01:08;3.80;1.00
9410;DHT22;4744;52.576;13.568;2023-01-31T00:03:36;3.70;1.00
9410;DHT22;4744;52.576;13.568;2023-01-31T00:06:16;3.80;1.00
9410;DHT22;4744;52.576;13.568;2023-01-31T00:08:45;3.80;1.00
9410;DHT22;4744;52.576;13.568;2023-01-31T00:11:13;3.80;1.00
9410;DHT22;4744;52.576;13.568;2023-01-31T00:13:40;3.70;1.00
9410;DHT22;4744;52.576;13.568;2023-01-31T00:16:09;3.70;1.00
9410;DHT22;4744;52.576;13.568;2023-01-31T00:18:37;3.60;1.00
9410;DHT22;4744;52.576;13.568;2023-01-31T00:21:06;3.60;1.00
9410;DHT22;4744;52.576;13.568;2023-01-31T00:23:35;3.60;1.00
9410;DHT22;4744;52.576;13.568;2023-01-31T00:26:09;3.50;1.00
9410;DHT22;4744;52.576;13.568;2023-01-31T00:28:37;3.50;1.00
9410;DHT22;4744;52.576;13.568;2023-01-31T00:31:04;3.50;1.00
9410;DHT22;4744;52.576;13.568;2023-01-31T00:33:32;3.50;1.00
9410;DHT22;4744;52.576;13.568;2023-01-31T00:36:02;3.50;1.00
9410;DHT22;4744;52.576;13.568;2023-01-31T00:38:29;3.50;1.00
9410;DHT22;4744;52.576;13.568;2023-01-31T00:40:58;3.50;1.00
9410;DHT22;4744;52.576;13.568;2023-01-31T00:43:26;3.50;1.00
9410;DHT22;4744;52.576;13.568;2023-01-31T00:45:53;3.50;1.00
9410;DHT22;4744;52.576;13.568;2023-01-31T00:48:20;3.60;1.00
9410;DHT22;4744;52.576;13.568;2023-01-31T00:50:47;3.60;1.00
9410;DHT22;4744;52.576;13.568;2023-01-31T00:53:14;3.60;1.00
9410;DHT22;4744;52.576;13.568;2023-01-31T00:55:42;3.70;1.00
9410;DHT22;4744;52.576;13.568;2023-01-31T00:58:11;3.70;1.00
9410;DHT22;4744;52.576;13.568;2023-01-31T01:00:38;3.70;1.00
9410;DHT22;4744;52.576;13.568;2023-01-31T01:03:05;3.70;1.00
9410;DHT22;4744;52.576;13.568;2023-01-31T01:05:32;3.70;1.00
9410;DHT22;4744;52.576;13.568;2023-01-31T01:07:59;3.70;1.00
9410;DHT22;4744;52.576;13.568;2023-01-31T01:10:26;3.70;1.00
9410;DHT22;4744;52.576;13.568;2023-01-31T01:12:53;3.70;1.00
9410;DHT22;4744;52.576;13.568;2023-01-31T01:15:21;3.80;1.00
9410;DHT22;4744;52.576;13.568;2023-01-31T01:17:48;3.80;1.00
9410;DHT22;4744;52.576;13.568;2023-01-31T01:20:16;3.80;1.00
9410;DHT22;4744;52.576;13.568;2023-01-31T01:22:44;3.80;1.00
9410;DHT22;4744;52.576;13.568;2023-01-31T01:25:11;3.80;1.00
9410;DHT22;4744;52.576;13.568;2023-01-31T01:27:38;3.80;1.00
9410;DHT22;4744;52.576;13.568;2023-01-31T01:30:06;3.80;1.00
9410;DHT22;4744;52.576;13.568;2023-01-31T01:32:35;3.70;1.00
9410;DHT22;4744;52.576;13.568;2023-01-31T01:35:02;3.80;1.00
9410;DHT22;4744;52.576;13.568;2023-01-31T01:37:29;3.80;1.00
9410;DHT22;4744;52.576;13.568;2023-01-31T01:39:56;3.80;1.00
9410;DHT22;4744;52.576;13.568;2023-01-31T01:42:24;3.80;1.00
9410;DHT22;4744;52.576;13.568;2023-01-31T01:44:53;3.80;1.00
9410;DHT22;4744;52.576;13.568;2023-01-31T01:47:30;3.80;1.00
9410;DHT22;4744;52.576;13.568;2023-01-31T01:50:02;3.90;1.00
9410;DHT22;4744;52.576;13.568;2023-01-31T01:52:34;3.80;1.00
9410;DHT22;4744;52.576;13.568;2023-01-31T01:55:06;3.80;1.00
9410;DHT22;4744;52.576;13.568;2023-01-31T01:57:38;3.90;1.00
9410;DHT22;4744;52.576;13.568;2023-01-31T02:00:12;3.90;1.00
9410;DHT22;4744;52.576;13.568;2023-01-31T02:02:40;3.90;1.00
9410;DHT22;4744;52.576;13.568;2023-01-31T02:05:11;3.90;1.00
9410;DHT22;4744;52.576;13.568;2023-01-31T02:07:40;3.90;1.00
9410;DHT22;4744;52.576;13.568;2023-01-31T02:10:12;3.90;1.00
9410;DHT22;4744;52.576;13.568;2023-01-31T02:12:40;3.90;1.00
9410;DHT22;4744;52.576;13.568;2023-01-31T02:15:08;3.90;1.00
9410;DHT22;4744;52.576;13.568;2023-01-31T02:17:36;3.90;1.00
9410;DHT22;4744;52.576;13.568;2023-01-31T02:20:16;3.90;1.00
9410;DHT22;4744;52.576;13.568;2023-01-31T02:23:01;3.90;1.00
9410;DHT22;4744;52.576;13.568;2023-01-31T02:26:02;3.90;1.00
9410;DHT22;4744;52.576;13.568;2023-01-31T02:29:04;3.90;1.00
9410;DHT22;4744;52.576;13.568;2023-01-31T02:32:17;3.90;1.00
9410;DHT22;4744;52.576;13.568;2023-01-31T02:34:50;3.90;1.00
9410;DHT22;4744;52.576;13.568;2023-01-31T02:37:28;3.90;1.00
9410;DHT22;4744;52.576;13.568;2023-01-31T02:40:02;3.90;1.00
9410;DHT22;4744;52.576;13.568;2023-01-31T02:42:37;3.90;1.00
9410;DHT22;4744;52.576;13.568;2023-01-31T02:45:08;3.90;1.00
9410;DHT22;4744;52.576;13.568;2023-01-31T02:47:49;3.90;1.00
9410;DHT22;4744;52.576;13.568;2023-01-31T02:50:23;3.90;1.00
9410;DHT22;4744;52.576;13.568;2023-01-31T02:52:57;3.90;1.00
9410;DHT22;4744;52.576;13.568;2023-01-31T02:55:31;3.90;1.00
9410;DHT22;4744;52.576;13.568;2023-01-31T02:58:19;3.90;1.00
9410;DHT22;4744;52.576;13.568;2023-01-31T03:00:48;3.90;1.00
9410;DHT22;4744;52.576;13.568;2023-01-31T03:03:21;3.80;1.00
9410;DHT22;4744;52.576;13.568;2023-01-31T03:08:41;3.80;1.00
9410;DHT22;4744;52.576;13.568;2023-01-31T03:11:09;3.70;1.00
9410;DHT22;4744;52.576;13.568;2023-01-31T03:13:48;3.70;1.00
9410;DHT22;4744;52.576;13.568;2023-01-31T03:16:26;3.70;1.00
9410;DHT22;4744;52.576;13.568;2023-01-31T03:19:15;3.60;1.00
9410;DHT22;4744;52.576;13.568;2023-01-31T03:21:49;3.60;1.00
9410;DHT22;4744;52.576;13.568;2023-01-31T03:24:19;3.50;1.00
9410;DHT22;4744;52.576;13.568;2023-01-31T03:26:51;3.40;1.00
9410;DHT22;4744;52.576;13.568;2023-01-31T03:29:19;3.30;1.00
9410;DHT22;4744;52.576;13.568;2023-01-31T03:31:52;3.20;1.00
9410;DHT22;4744;52.576;13.568;2023-01-31T03:34:22;3.20;1.00
9410;DHT22;4744;52.576;13.568;2023-01-31T03:36:53;3.20;1.00
9410;DHT22;4744;52.576;13.568;2023-01-31T03:39:30;3.10;1.00
9410;DHT22;4744;52.576;13.568;2023-01-31T03:42:04;3.10;1.00
9410;DHT22;4744;52.576;13.568;2023-01-31T03:44:41;3.00;1.00
9410;DHT22;4744;52.576;13.568;2023-01-31T03:47:15;3.00;1.00
9410;DHT22;4744;52.576;13.568;2023-01-31T03:49:49;3.00;1.00
9410;DHT22;4744;52.576;13.568;2023-01-31T03:52:19;2.90;1.00
9410;DHT22;4744;52.576;13.568;2023-01-31T03:54:54;2.90;1.00
9410;DHT22;4744;52.576;13.568;2023-01-31T03:57:27;2.90;1.00
9410;DHT22;4744;52.576;13.568;2023-01-31T03:59:57;2.80;1.00
9410;DHT22;4744;52.576;13.568;2023-01-31T04:02:28;2.80;1.00
9410;DHT22;4744;52.576;13.568;2023-01-31T04:05:03;2.80;1.00
9410;DHT22;4744;52.576;13.568;2023-01-31T04:07:32;2.80;1.00
9410;DHT22;4744;52.576;13.568;2023-01-31T04:10:00;2.80;1.00
9410;DHT22;4744;52.576;13.568;2023-01-31T04:12:27;2.80;1.00
9410;DHT22;4744;52.576;13.568;2023-01-31T04:14:54;2.80;1.00
9410;DHT22;4744;52.576;13.568;2023-01-31T04:17:21;2.70;1.00
9410;DHT22;4744;52.576;13.568;2023-01-31T04:19:48;2.70;1.00
9410;DHT22;4744;52.576;13.568;2023-01-31T04:22:16;2.70;1.00
9410;DHT22;4744;52.576;13.568;2023-01-31T04:24:43;2.70;1.00
9410;DHT22;4744;52.576;13.568;2023-01-31T04:27:10;2.70;1.00
9410;DHT22;4744;52.576;13.568;2023-01-31T04:29:37;2.70;1.00
9410;DHT22;4744;52.576;13.568;2023-01-31T04:32:05;2.70;1.00
9410;DHT22;4744;52.576;13.568;2023-01-31T04:34:32;2.70;1.00
9410;DHT22;4744;52.576;13.568;2023-01-31T04:37:00;2.70;1.00
9410;DHT22;4744;52.576;13.568;2023-01-31T04:39:28;2.70;1.00
9410;DHT22;4744;52.576;13.568;2023-01-31T04:41:55;2.70;1.00
9410;DHT22;4744;52.576;13.568;2023-01-31T04:44:23;2.60;1.00
9410;DHT22;4744;52.576;13.568;2023-01-31T04:46:50;2.60;1.00
9410;DHT22;4744;52.576;13.568;2023-01-31T04:49:18;2.60;1.00
9410;DHT22;4744;52.576;13.568;2023-01-31T04:51:48;2.60;1.00
9410;DHT22;4744;52.576;13.568;2023-01-31T04:54:15;2.50;1.00
9410;DHT22;4744;52.576;13.568;2023-01-31T04:56:43;2.50;1.00
9410;DHT22;4744;52.576;13.568;2023-01-31T04:59:11;2.50;1.00
9410;DHT22;4744;52.576;13.568;2023-01-31T05:01:38;2.40;1.00
9410;DHT22;4744;52.576;13.568;2023-01-31T05:04:06;2.40;1.00
9410;DHT22;4744;52.576;13.568;2023-01-31T05:06:34;2.40;1.00
9410;DHT22;4744;52.576;13.568;2023-01-31T05:09:01;2.40;1.00
9410;DHT22;4744;52.576;13.568;2023-01-31T05:11:28;2.40;1.00
9410;DHT22;4744;52.576;13.568;2023-01-31T05:13:56;2.40;1.00
9410;DHT22;4744;52.576;13.568;2023-01-31T05:16:23;2.40;1.00
9410;DHT22;4744;52.576;13.568;2023-01-31T05:18:50;2.50;1.00
9410;DHT22;4744;52.576;13.568;2023-01-31T05:21:17;2.50;1.00
9410;DHT22;4744;52.576;13.568;2023-01-31T05:23:45;2.40;1.00
9410;DHT22;4744;52.576;13.568;2023-01-31T05:26:12;2.40;1.00
9410;DHT22;4744;52.576;13.568;2023-01-31T05:28:39;2.50;1.00
9410;DHT22;4744;52.576;13.568;2023-01-31T05:31:08;2.50;1.00
9410;DHT22;4744;52.576;13.568;2023-01-31T05:33:36;2.50;1.00
9410;DHT22;4744;52.576;13.568;2023-01-31T05:36:04;2.50;1.00
9410;DHT22;4744;52.576;13.568;2023-01-31T05:38:31;2.50;1.00
9410;DHT22;4744;52.576;13.568;2023-01-31T05:40:58;2.50;1.00
9410;DHT22;4744;52.576;13.568;2023-01-31T05:43:25;2.50;1.00
9410;DHT22;4744;52.576;13.568;2023-01-31T05:45:52;2.50;1.00
9410;DHT22;4744;52.576;13.568;2023-01-31T05:48:20;2.50;1.00
9410;DHT22;4744;52.576;13.568;2023-01-31T05:50:48;2.50;1.00
9410;DHT22;4744;52.576;13.568;2023-01-31T05:53:16;2.50;1.00
9410;DHT22;4744;52.576;13.568;2023-01-31T05:55:43;2.50;1.00
9410;DHT22;4744;52.576;13.568;2023-01-31T05:58:10;2.50;1.00
9410;DHT22;4744;52.576;13.568;2023-01-31T06:00:37;2.50;1.00
9410;DHT22;4744;52.576;13.568;2023-01-31T06:03:04;2.60;1.00
9410;DHT22;4744;52.576;13.568;2023-01-31T06:05:33;2.60;1.00
9410;DHT22;4744;52.576;13.568;2023-01-31T06:08:00;2.70;1.00
9410;DHT22;4744;52.576;13.568;2023-01-31T06:10:28;2.80;1.00
9410;DHT22;4744;52.576;13.568;2023-01-31T06:12:55;2.80;1.00
9410;DHT22;4744;52.576;13.568;2023-01-31T06:15:22;2.80;1.00
9410;DHT22;4744;52.576;13.568;2023-01-31T06:17:49;2.90;1.00
9410;DHT22;4744;52.576;13.568;2023-01-31T06:20:16;2.90;1.00
9410;DHT22;4744;52.576;13.568;2023-01-31T06:22:45;2.90;1.00
9410;DHT22;4744;52.576;13.568;2023-01-31T06:25:12;3.00;1.00
9410;DHT22;4744;52.576;13.568;2023-01-31T06:27:39;3.00;1.00
9410;DHT22;4744;52.576;13.568;2023-01-31T06:30:07;3.10;1.00
9410;DHT22;4744;52.576;13.568;2023-01-31T06:32:35;3.10;1.00
9410;DHT22;4744;52.576;13.568;2023-01-31T06:35:02;3.20;1.00
9410;DHT22;4744;52.576;13.568;2023-01-31T06:37:29;3.20;1.00
9410;DHT22;4744;52.576;13.568;2023-01-31T06:39:58;3.20;1.00
9410;DHT22;4744;52.576;13.568;2023-01-31T06:42:25;3.30;1.00
9410;DHT22;4744;52.576;13.568;2023-01-31T06:44:52;3.30;1.00
9410;DHT22;4744;52.576;13.568;2023-01-31T06:47:19;3.40;1.00
9410;DHT22;4744;52.576;13.568;2023-01-31T06:49:46;3.40;1.00
9410;DHT22;4744;52.576;13.568;2023-01-31T06:52:13;3.50;1.00
9410;DHT22;4744;52.576;13.568;2023-01-31T06:54:40;3.50;1.00
9410;DHT22;4744;52.576;13.568;2023-01-31T06:57:08;3.50;1.00
9410;DHT22;4744;52.576;13.568;2023-01-31T06:59:36;3.50;1.00
9410;DHT22;4744;52.576;13.568;2023-01-31T07:02:02;3.50;1.00
9410;DHT22;4744;52.576;13.568;2023-01-31T07:04:29;3.60;1.00
9410;DHT22;4744;52.576;13.568;2023-01-31T07:06:56;3.60;1.00
9410;DHT22;4744;52.576;13.568;2023-01-31T07:09:23;3.60;1.00
9410;DHT22;4744;52.576;13.568;2023-01-31T07:11:50;3.60;1.00
9410;DHT22;4744;52.576;13.568;2023-01-31T07:14:19;3.60;1.00
9410;DHT22;4744;52.576;13.568;2023-01-31T07:16:46;3.60;1.00
9410;DHT22;4744;52.576;13.568;2023-01-31T07:19:13;3.70;1.00
9410;DHT22;4744;52.576;13.568;2023-01-31T07:21:40;3.70;1.00
9410;DHT22;4744;52.576;13.568;2023-01-31T07:24:07;3.70;1.00
9410;DHT22;4744;52.576;13.568;2023-01-31T07:26:34;3.70;1.00
9410;DHT22;4744;52.576;13.568;2023-01-31T07:29:01;3.70;1.00
9410;DHT22;4744;52.576;13.568;2023-01-31T07:31:30;3.70;1.00
9410;DHT22;4744;52.576;13.568;2023-01-31T07:33:57;3.70;1.00
9410;DHT22;4744;52.576;13.568;2023-01-31T07:36:24;3.80;1.00
9410;DHT22;4744;52.576;13.568;2023-01-31T07:38:53;3.80;1.00
9410;DHT22;4744;52.576;13.568;2023-01-31T07:41:21;3.80;1.00
9410;DHT22;4744;52.576;13.568;2023-01-31T07:43:48;3.80;1.00
9410;DHT22;4744;52.576;13.568;2023-01-31T07:46:16;3.90;1.00
9410;DHT22;4744;52.576;13.568;2023-01-31T07:48:44;3.90;1.00
9410;DHT22;4744;52.576;13.568;2023-01-31T07:51:11;3.90;1.00
9410;DHT22;4744;52.576;13.568;2023-01-31T07:53:39;4.00;1.00
9410;DHT22;4744;52.576;13.568;2023-01-31T07:56:10;4.00;1.00
9410;DHT22;4744;52.576;13.568;2023-01-31T07:58:39;4.00;1.00
9410;DHT22;4744;52.576;13.568;2023-01-31T08:01:09;4.10;1.00
9410;DHT22;4744;52.576;13.568;2023-01-31T08:03:57;4.10;1.00
9410;DHT22;4744;52.576;13.568;2023-01-31T08:06:26;4.10;1.00
9410;DHT22;4744;52.576;13.568;2023-01-31T08:08:54;4.10;1.00
9410;DHT22;4744;52.576;13.568;2023-01-31T08:11:21;4.10;1.00
9410;DHT22;4744;52.576;13.568;2023-01-31T08:13:49;4.10;1.00
9410;DHT22;4744;52.576;13.568;2023-01-31T08:16:16;4.00;1.00
9410;DHT22;4744;52.576;13.568;2023-01-31T08:18:43;4.00;1.00
9410;DHT22;4744;52.576;13.568;2023-01-31T08:21:12;4.00;1.00
9410;DHT22;4744;52.576;13.568;2023-01-31T08:23:40;4.00;1.00
9410;DHT22;4744;52.576;13.568;2023-01-31T08:26:10;4.10;1.00
9410;DHT22;4744;52.576;13.568;2023-01-31T08:28:38;4.10;1.00
9410;DHT22;4744;52.576;13.568;2023-01-31T08:31:06;4.10;1.00
9410;DHT22;4744;52.576;13.568;2023-01-31T08:33:33;4.00;1.00
9410;DHT22;4744;52.576;13.568;2023-01-31T08:36:07;4.10;1.00
9410;DHT22;4744;52.576;13.568;2023-01-31T08:38:37;4.10;1.00
9410;DHT22;4744;52.576;13.568;2023-01-31T08:41:04;4.00;1.00
9410;DHT22;4744;52.576;13.568;2023-01-31T08:43:32;4.10;1.00
9410;DHT22;4744;52.576;13.568;2023-01-31T08:45:59;4.10;1.00
9410;DHT22;4744;52.576;13.568;2023-01-31T08:48:26;4.10;1.00
9410;DHT22;4744;52.576;13.568;2023-01-31T08:50:52;4.00;1.00
9410;DHT22;4744;52.576;13.568;2023-01-31T08:53:19;4.10;1.00
9410;DHT22;4744;52.576;13.568;2023-01-31T08:55:48;4.10;1.00
9410;DHT22;4744;52.576;13.568;2023-01-31T08:58:15;4.10;1.00
9410;DHT22;4744;52.576;13.568;2023-01-31T09:00:42;4.00;1.00
9410;DHT22;4744;52.576;13.568;2023-01-31T09:03:13;4.10;1.00
9410;DHT22;4744;52.576;13.568;2023-01-31T09:05:42;4.00;1.00
9410;DHT22;4744;52.576;13.568;2023-01-31T09:08:09;4.10;1.00
9410;DHT22;4744;52.576;13.568;2023-01-31T09:10:36;4.10;1.00
9410;DHT22;4744;52.576;13.568;2023-01-31T09:13:05;4.10;1.00
9410;DHT22;4744;52.576;13.568;2023-01-31T09:15:31;4.10;1.00
9410;DHT22;4744;52.576;13.568;2023-01-31T09:17:58;4.20;1.00
9410;DHT22;4744;52.576;13.568;2023-01-31T09:20:26;4.20;1.00
9410;DHT22;4744;52.576;13.568;2023-01-31T09:22:53;4.20;1.00
9410;DHT22;4744;52.576;13.568;2023-01-31T09:25:20;4.30;1.00
9410;DHT22;4744;52.576;13.568;2023-01-31T09:27:47;4.30;1.00
9410;DHT22;4744;52.576;13.568;2023-01-31T09:30:16;4.30;1.00
9410;DHT22;4744;52.576;13.568;2023-01-31T09:32:43;4.30;1.00
9410;DHT22;4744;52.576;13.568;2023-01-31T09:35:10;4.40;1.00
9410;DHT22;4744;52.576;13.568;2023-01-31T09:37:37;4.40;1.00
9410;DHT22;4744;52.576;13.568;2023-01-31T09:40:05;4.40;1.00
9410;DHT22;4744;52.576;13.568;2023-01-31T09:42:35;4.40;1.00
9410;DHT22;4744;52.576;13.568;2023-01-31T09:45:06;4.50;1.00
9410;DHT22;4744;52.576;13.568;2023-01-31T09:47:41;4.50;1.00
9410;DHT22;4744;52.576;13.568;2023-01-31T09:50:18;4.50;1.00
9410;DHT22;4744;52.576;13.568;2023-01-31T09:52:46;4.50;1.00
9410;DHT22;4744;52.576;13.568;2023-01-31T09:55:15;4.60;1.00
9410;DHT22;4744;52.576;13.568;2023-01-31T09:57:49;4.60;1.00
9410;DHT22;4744;52.576;13.568;2023-01-31T10:00:22;4.60;1.00
9410;DHT22;4744;52.576;13.568;2023-01-31T10:06:08;4.80;1.00
9410;DHT22;4744;52.576;13.568;2023-01-31T10:08:41;4.80;1.00
9410;DHT22;4744;52.576;13.568;2023-01-31T10:11:13;4.90;1.00
9410;DHT22;4744;52.576;13.568;2023-01-31T10:13:46;4.90;1.00
9410;DHT22;4744;52.576;13.568;2023-01-31T10:16:22;5.10;1.00
9410;DHT22;4744;52.576;13.568;2023-01-31T10:18:54;5.00;1.00
9410;DHT22;4744;52.576;13.568;2023-01-31T10:21:29;5.10;1.00
9410;DHT22;4744;52.576;13.568;2023-01-31T10:24:02;5.00;1.00
9410;DHT22;4744;52.576;13.568;2023-01-31T10:26:33;5.10;1.00
9410;DHT22;4744;52.576;13.568;2023-01-31T10:29:05;5.10;1.00
9410;DHT22;4744;52.576;13.568;2023-01-31T10:31:40;5.10;1.00
9410;DHT22;4744;52.576;13.568;2023-01-31T10:34:11;5.20;1.00
9410;DHT22;4744;52.576;13.568;2023-01-31T10:36:44;5.20;1.00
9410;DHT22;4744;52.576;13.568;2023-01-31T10:39:19;5.20;1.00
9410;DHT22;4744;52.576;13.568;2023-01-31T10:42:04;5.20;1.00
9410;DHT22;4744;52.576;13.568;2023-01-31T10:44:40;5.20;1.00
9410;DHT22;4744;52.576;13.568;2023-01-31T10:47:11;5.30;1.00
9410;DHT22;4744;52.576;13.568;2023-01-31T10:49:40;5.20;1.00
9410;DHT22;4744;52.576;13.568;2023-01-31T10:52:20;5.30;1.00
9410;DHT22;4744;52.576;13.568;2023-01-31T10:55:00;5.30;1.00
9410;DHT22;4744;52.576;13.568;2023-01-31T10:57:27;5.30;1.00
9410;DHT22;4744;52.576;13.568;2023-01-31T10:59:55;5.30;1.00
9410;DHT22;4744;52.576;13.568;2023-01-31T11:02:24;5.40;1.00
9410;DHT22;4744;52.576;13.568;2023-01-31T11:04:53;5.40;1.00
9410;DHT22;4744;52.576;13.568;2023-01-31T11:07:22;5.50;1.00
9410;DHT22;4744;52.576;13.568;2023-01-31T11:09:51;5.50;1.00
9410;DHT22;4744;52.576;13.568;2023-01-31T11:12:19;5.60;1.00
9410;DHT22;4744;52.576;13.568;2023-01-31T11:15:03;5.70;1.00
9410;DHT22;4744;52.576;13.568;2023-01-31T11:17:32;5.70;1.00
9410;DHT22;4744;52.576;13.568;2023-01-31T11:20:03;5.70;1.00
9410;DHT22;4744;52.576;13.568;2023-01-31T11:22:35;5.60;1.00
9410;DHT22;4744;52.576;13.568;2023-01-31T11:25:04;5.70;1.00
9410;DHT22;4744;52.576;13.568;2023-01-31T11:27:36;5.70;1.00
9410;DHT22;4744;52.576;13.568;2023-01-31T11:30:05;5.60;1.00
9410;DHT22;4744;52.576;13.568;2023-01-31T11:32:35;5.70;1.00
9410;DHT22;4744;52.576;13.568;2023-01-31T11:35:05;5.60;1.00
9410;DHT22;4744;52.576;13.568;2023-01-31T11:37:34;5.60;1.00
9410;DHT22;4744;52.576;13.568;2023-01-31T11:40:03;5.60;1.00
9410;DHT22;4744;52.576;13.568;2023-01-31T11:42:50;5.70;1.00
9410;DHT22;4744;52.576;13.568;2023-01-31T11:45:19;5.70;1.00
9410;DHT22;4744;52.576;13.568;2023-01-31T11:47:50;5.80;1.00
9410;DHT22;4744;52.576;13.568;2023-01-31T11:50:22;5.80;1.00
9410;DHT22;4744;52.576;13.568;2023-01-31T11:52:55;5.70;1.00
9410;DHT22;4744;52.576;13.568;2023-01-31T11:55:23;5.70;1.00
9410;DHT22;4744;52.576;13.568;2023-01-31T11:57:55;5.70;1.00
9410;DHT22;4744;52.576;13.568;2023-01-31T12:00:25;5.70;1.00
9410;DHT22;4744;52.576;13.568;2023-01-31T12:02:58;5.70;1.00
9410;DHT22;4744;52.576;13.568;2023-01-31T12:05:33;5.70;1.00
9410;DHT22;4744;52.576;13.568;2023-01-31T12:08:03;5.70;1.00
9410;DHT22;4744;52.576;13.568;2023-01-31T12:10:41;5.70;1.00
9410;DHT22;4744;52.576;13.568;2023-01-31T12:13:14;5.70;1.00
9410;DHT22;4744;52.576;13.568;2023-01-31T12:15:47;5.70;1.00
9410;DHT22;4744;52.576;13.568;2023-01-31T12:18:24;5.70;1.00
9410;DHT22;4744;52.576;13.568;2023-01-31T12:21:04;5.70;1.00
9410;DHT22;4744;52.576;13.568;2023-01-31T12:23:42;5.60;1.00
9410;DHT22;4744;52.576;13.568;2023-01-31T12:26:15;5.70;1.00
9410;DHT22;4744;52.576;13.568;2023-01-31T12:28:54;5.60;1.00
9410;DHT22;4744;52.576;13.568;2023-01-31T12:31:36;5.50;1.00
9410;DHT22;4744;52.576;13.568;2023-01-31T12:34:22;5.50;1.00
9410;DHT22;4744;52.576;13.568;2023-01-31T12:37:04;5.50;1.00
9410;DHT22;4744;52.576;13.568;2023-01-31T12:39:48;5.40;1.00
9410;DHT22;4744;52.576;13.568;2023-01-31T12:42:36;5.40;1.00
9410;DHT22;4744;52.576;13.568;2023-01-31T12:45:24;5.40;1.00
9410;DHT22;4744;52.576;13.568;2023-01-31T12:48:12;5.30;1.00
9410;DHT22;4744;52.576;13.568;2023-01-31T12:50:44;5.30;1.00
9410;DHT22;4744;52.576;13.568;2023-01-31T12:53:35;5.20;1.00
9410;DHT22;4744;52.576;13.568;2023-01-31T12:56:17;5.20;1.00
9410;DHT22;4744;52.576;13.568;2023-01-31T12:58:52;5.20;1.00
9410;DHT22;4744;52.576;13.568;2023-01-31T13:01:30;5.10;1.00
9410;DHT22;4744;52.576;13.568;2023-01-31T13:04:21;5.10;1.00
9410;DHT22;4744;52.576;13.568;2023-01-31T13:06:55;5.10;1.00
9410;DHT22;4744;52.576;13.568;2023-01-31T13:09:27;5.00;1.00
9410;DHT22;4744;52.576;13.568;2023-01-31T13:12:00;5.00;1.00
9410;DHT22;4744;52.576;13.568;2023-01-31T13:14:31;5.00;1.00
9410;DHT22;4744;52.576;13.568;2023-01-31T13:17:03;5.00;1.00
9410;DHT22;4744;52.576;13.568;2023-01-31T13:19:33;5.00;1.00
9410;DHT22;4744;52.576;13.568;2023-01-31T13:22:09;5.00;1.00
9410;DHT22;4744;52.576;13.568;2023-01-31T13:24:39;4.90;1.00
9410;DHT22;4744;52.576;13.568;2023-01-31T13:27:16;4.80;1.00
9410;DHT22;4744;52.576;13.568;2023-01-31T13:29:48;4.80;1.00
9410;DHT22;4744;52.576;13.568;2023-01-31T13:32:23;4.80;1.00
9410;DHT22;4744;52.576;13.568;2023-01-31T13:34:56;4.80;1.00
9410;DHT22;4744;52.576;13.568;2023-01-31T13:37:25;4.90;1.00
9410;DHT22;4744;52.576;13.568;2023-01-31T13:39:58;4.80;1.00
9410;DHT22;4744;52.576;13.568;2023-01-31T13:42:28;4.80;1.00
9410;DHT22;4744;52.576;13.568;2023-01-31T13:45:01;4.80;1.00
9410;DHT22;4744;52.576;13.568;2023-01-31T13:47:32;4.80;1.00
9410;DHT22;4744;52.576;13.568;2023-01-31T13:50:06;4.80;1.00
9410;DHT22;4744;52.576;13.568;2023-01-31T13:52:42;4.80;1.00
9410;DHT22;4744;52.576;13.568;2023-01-31T13:55:16;4.80;1.00
9410;DHT22;4744;52.576;13.568;2023-01-31T13:57:54;4.80;1.00
9410;DHT22;4744;52.576;13.568;2023-01-31T14:00:34;4.80;1.00
9410;DHT22;4744;52.576;13.568;2023-01-31T14:03:05;4.80;1.00
9410;DHT22;4744;52.576;13.568;2023-01-31T14:05:54;4.80;1.00
9410;DHT22;4744;52.576;13.568;2023-01-31T14:08:31;4.80;1.00
9410;DHT22;4744;52.576;13.568;2023-01-31T14:10:59;4.80;1.00
9410;DHT22;4744;52.576;13.568;2023-01-31T14:13:43;4.80;1.00
9410;DHT22;4744;52.576;13.568;2023-01-31T14:16:33;4.80;1.00
9410;DHT22;4744;52.576;13.568;2023-01-31T14:19:00;4.80;1.00
9410;DHT22;4744;52.576;13.568;2023-01-31T14:21:52;4.70;1.00
9410;DHT22;4744;52.576;13.568;2023-01-31T14:24:55;4.80;1.00
9410;DHT22;4744;52.576;13.568;2023-01-31T14:27:26;4.80;1.00
9410;DHT22;4744;52.576;13.568;2023-01-31T14:30:00;4.80;1.00
9410;DHT22;4744;52.576;13.568;2023-01-31T14:32:35;4.80;1.00
9410;DHT22;4744;52.576;13.568;2023-01-31T14:37:51;4.80;1.00
9410;DHT22;4744;52.576;13.568;2023-01-31T14:40:24;4.80;1.00
9410;DHT22;4744;52.576;13.568;2023-01-31T14:43:24;4.80;1.00
9410;DHT22;4744;52.576;13.568;2023-01-31T14:46:19;4.80;1.00
9410;DHT22;4744;52.576;13.568;2023-01-31T14:52:17;4.80;1.00
9410;DHT22;4744;52.576;13.568;2023-01-31T14:55:04;4.80;1.00
9410;DHT22;4744;52.576;13.568;2023-01-31T14:57:39;4.90;1.00
9410;DHT22;4744;52.576;13.568;2023-01-31T15:00:19;4.90;1.00
9410;DHT22;4744;52.576;13.568;2023-01-31T15:02:51;4.90;1.00
9410;DHT22;4744;52.576;13.568;2023-01-31T15:05:36;4.90;1.00
9410;DHT22;4744;52.576;13.568;2023-01-31T15:11:39;5.00;1.00
9410;DHT22;4744;52.576;13.568;2023-01-31T15:14:37;5.00;1.00
9410;DHT22;4744;52.576;13.568;2023-01-31T15:17:12;5.00;1.00
9410;DHT22;4744;52.576;13.568;2023-01-31T15:19:46;5.00;1.00
9410;DHT22;4744;52.576;13.568;2023-01-31T15:22:16;5.00;1.00
9410;DHT22;4744;52.576;13.568;2023-01-31T15:24:55;5.00;1.00
9410;DHT22;4744;52.576;13.568;2023-01-31T15:27:25;5.00;1.00
9410;DHT22;4744;52.576;13.568;2023-01-31T15:30:02;5.10;1.00
9410;DHT22;4744;52.576;13.568;2023-01-31T15:32:35;5.10;1.00
9410;DHT22;4744;52.576;13.568;2023-01-31T15:35:18;5.10;1.00
9410;DHT22;4744;52.576;13.568;2023-01-31T15:37:54;5.10;1.00
9410;DHT22;4744;52.576;13.568;2023-01-31T15:40:23;5.10;1.00
9410;DHT22;4744;52.576;13.568;2023-01-31T15:42:50;5.10;3.90
9410;DHT22;4744;52.576;13.568;2023-01-31T15:45:20;5.10;5.60
9410;DHT22;4744;52.576;13.568;2023-01-31T15:47:58;5.20;3.00
9410;DHT22;4744;52.576;13.568;2023-01-31T15:50:30;5.20;1.70
9410;DHT22;4744;52.576;13.568;2023-01-31T15:53:02;5.20;7.10
9410;DHT22;4744;52.576;13.568;2023-01-31T15:55:29;5.20;8.70
9410;DHT22;4744;52.576;13.568;2023-01-31T15:57:59;5.20;6.70
9410;DHT22;4744;52.576;13.568;2023-01-31T16:00:29;5.20;5.20
9410;DHT22;4744;52.576;13.568;2023-01-31T16:02:56;5.20;10.90
9410;DHT22;4744;52.576;13.568;2023-01-31T16:05:30;5.30;12.40
9410;DHT22;4744;52.576;13.568;2023-01-31T16:07:58;5.30;13.20
9410;DHT22;4744;52.576;13.568;2023-01-31T16:10:27;5.20;13.10
9410;DHT22;4744;52.576;13.568;2023-01-31T16:12:57;5.30;13.40
9410;DHT22;4744;52.576;13.568;2023-01-31T16:15:26;5.30;12.20
9410;DHT22;4744;52.576;13.568;2023-01-31T16:17:55;5.30;14.90
9410;DHT22;4744;52.576;13.568;2023-01-31T16:20:40;5.30;13.10
9410;DHT22;4744;52.576;13.568;2023-01-31T16:23:23;5.20;18.40
9410;DHT22;4744;52.576;13.568;2023-01-31T16:25:54;5.30;17.40
9410;DHT22;4744;52.576;13.568;2023-01-31T16:28:22;5.30;18.10
9410;DHT22;4744;52.576;13.568;2023-01-31T16:30:50;5.30;19.80
9410;DHT22;4744;52.576;13.568;2023-01-31T16:33:21;5.30;18.40
9410;DHT22;4744;52.576;13.568;2023-01-31T16:36:03;5.30;19.20
9410;DHT22;4744;52.576;13.568;2023-01-31T16:38:31;5.40;18.60
9410;DHT22;4744;52.576;13.568;2023-01-31T16:41:00;5.40;16.20
9410;DHT22;4744;52.576;13.568;2023-01-31T16:43:34;5.40;17.90
9410;DHT22;4744;52.576;13.568;2023-01-31T16:46:02;5.50;12.80
9410;DHT22;4744;52.576;13.568;2023-01-31T16:48:32;5.50;13.70
9410;DHT22;4744;52.576;13.568;2023-01-31T16:51:38;5.50;12.20
9410;DHT22;4744;52.576;13.568;2023-01-31T16:54:19;5.50;10.40
9410;DHT22;4744;52.576;13.568;2023-01-31T16:56:47;5.60;2.90
9410;DHT22;4744;52.576;13.568;2023-01-31T16:59:38;5.60;1.00
9410;DHT22;4744;52.576;13.568;2023-01-31T17:02:12;5.60;1.00